This is the latest recevied weather packets stored in our database for station/object Dunnningn. If no packets are shown the sender has not sent any weather packets the latest 10 day(s).
| Time | Temp. | Humidity | Pressure | Rain* | Wind** | Luminosity | Snow |
|---|---|---|---|---|---|---|---|
| 1777685531 | 4.44° C | 76% | 1023.8 hPa | 0 mm | - | - | - |
| 1777683731 | 5° C | 75% | 1023.8 hPa | 0 mm | - | - | - |
| 1777681929 | 5.56° C | 73% | 1024 hPa | 0 mm | - | - | - |
| 1777680129 | 6.11° C | 71% | 1024 hPa | 0 mm | - | - | - |
| 1777678330 | 6.67° C | 68% | 1024.2 hPa | 0 mm | - | - | - |
| 1777676530 | 7.78° C | 67% | 1024 hPa | 0 mm | - | - | - |
| 1777674730 | 8.33° C | 65% | 1024.1 hPa | 0 mm | - | - | - |
| 1777671130 | 10° C | 58% | 1024.1 hPa | 0 mm | - | - | - |
| 1777669330 | 11.11° C | 58% | 1024 hPa | 0 mm | - | - | - |
| 1777667529 | 12.22° C | 51% | 1024.1 hPa | 0 mm | - | - | - |
| 1777665732 | 13.89° C | 47% | 1023.9 hPa | 0 mm | - | - | - |
| 1777663929 | 15.56° C | 43% | 1023.8 hPa | 0 mm | - | - | - |
| 1777662130 | 17.22° C | 37% | 1023.7 hPa | 0 mm | - | - | - |
| 1777660330 | 18.33° C | 32% | 1023.5 hPa | 0 mm | - | - | - |
| 1777658531 | 19.44° C | 31% | 1023.2 hPa | 0 mm | - | - | - |
| 1777656731 | 20.56° C | 28% | 1023 hPa | 0 mm | - | - | - |
| 1777654930 | 21.11° C | 25% | 1023 hPa | 0 mm | - | - | - |
| 1777653129 | 22.78° C | 22% | 1023.2 hPa | 0 mm | - | - | - |
| 1777651330 | 22.78° C | 21% | 1023.4 hPa | 0 mm | - | - | - |
| 1777649530 | 23.33° C | 20% | 1023.7 hPa | 0 mm | - | - | - |
| 1777647730 | 23.33° C | 20% | 1023.9 hPa | 0 mm | - | - | - |
| 1777645930 | 23.33° C | 21% | 1024 hPa | 0 mm | - | - | - |
| 1777644130 | 23.33° C | 22% | 1024.2 hPa | 0 mm | - | - | - |
| 1777642330 | 22.78° C | 20% | 1024.6 hPa | 0 mm | - | - | - |
| 1777640530 | 22.22° C | 24% | 1025 hPa | 0 mm | - | - | - |
* Rain since midnight (hover to see other rain measurements)
** Current wind speed in m/s (hover to see current wind gust speed)